Franconia, New Hampshire
Current Conditions -  °F | °C
As of 3:52 PM on Saturday 22 Nov 2014 (Local Time) from KHIE Reporting Station
Scattered Clouds Scattered Clouds  
Wind Chill: 35°   Ceiling: Unl
Heat Index: 35°   Visibility: 10mi
Dew Point:   Wind: 3mph
Humidity: 34%   Direction: 310°NW
Pressure: 29.97"   Gusts: NA
Location:  44.23°N, 71.75°W
Report Text: KHIE 222052Z AUTO 31003KT 10SM SCT050 02/M13 A2997 RMK AO2 SLP167 T00171128 56028
Loading
Personal Weather Stations






























Interactive Weather Map New forecast layout! Learn more

10-Day Weather Forecast

Advertisements
Track Severe Weather on mobile